EGNM/LBA METAR and TAF weather

Enter ICAO airport designator
Station Type Date Time Source
EGNM METAR 2020/07/06 22:50 UTC NOAA

EGNM 062250Z 24006KT 9999 FEW038 10/08 Q1021


Station Type Date Time Source
EGNM Decoded METAR 2020/07/06 22:50 UTC NOAA

Leeds And Bradford, United Kingdom (EGNM) 53-52N 001-39W
Jul 06, 2020 - 06:50 PM EDT / 2020.07.06 2250 UTC
Wind: from the WSW (240 degrees) at 7 MPH (6 KT):0
Visibility: greater than 7 mile(s):0
Sky conditions: mostly clear
Temperature: 50 F (10 C)
Dew Point: 46 F (8 C)
Relative Humidity: 87%
Pressure (altimeter): 30.15 in. Hg (1021 hPa)
ob: EGNM 062250Z 24006KT 9999 FEW038 10/08 Q1021
cycle: 23

Station Type Date Time Source
EGNM TAF 2020/07/06 18:00 UTC NOAA

TAF EGNM 061657Z 0618/0623 29010KT 9999 SCT040

Example: see airport list